In Rescue
 
Open Full Screen Window  High Contrast Mode
Wind Gusting 00 knots
03
July 25, 2021 8:11 AM CDT
Weather Information
Wind Direction
  260 °
Wind Speed
  03 kt (3 mph)
Wind Gust
  00 kt (0 mph)
Altimeter
30.02 in
Visibility
10 SM
Temperature
21° C
70° F
Dewpoint
15° C
59° F
Humidity
69%
1hr Rain Fall
00.00 in.
24hr Rain Fall
00.00 in.
Sky Condition
Clear
VFR

METAR KGYL 251311Z AUTO 26003KT 10SM CLR 21/15 A3002 RMK AO2 T02060154

FAA Disclaimer: The data displayed is for advisory purposes only and is not to be used for flight planning or operations.